Time;durP1;ratioP1;P1;durP2;ratioP2;P2;SDS_P1;SDS_P2;PMS_P1;PMS_P2;Temp;Humidity;BMP_temperature;BMP_pressure;BME280_temperature;BME280_humidity;BME280_pressure;Samples;Min_cycle;Max_cycle;Signal;HPM_P1;HPM_P2
2022/01/20 00:02:22;;;;;;;4.13;3.73;;;;;;;3.50;100.00;100725.66;4981402;28;20291;-67
2022/01/20 00:05:09;;;;;;;4.00;3.70;;;;;;;3.60;100.00;100724.66;5012858;28;20289;-67
2022/01/20 00:07:49;;;;;;;5.30;4.73;;;;;;;3.55;100.00;100723.88;5013531;28;20517;-67
2022/01/20 00:26:23;;;;;;;5.03;4.57;;;;;;;3.10;100.00;100737.25;5033270;28;20535;-67
2022/01/20 00:28:52;;;;;;;5.07;4.57;;;;;;;3.10;100.00;100736.38;5033195;28;20366;-67
2022/01/20 00:33:47;;;;;;;7.47;4.43;;;;;;;3.01;100.00;100738.16;5012132;28;20197;-67
2022/01/20 00:38:42;;;;;;;5.30;4.53;;;;;;;2.88;100.00;100732.41;5013347;28;20177;-67
2022/01/20 00:41:14;;;;;;;5.70;3.90;;;;;;;2.83;100.00;100736.72;5002211;28;20236;-67
2022/01/20 00:43:44;;;;;;;4.73;4.27;;;;;;;2.86;100.00;100739.22;5012171;28;20229;-67
2022/01/20 00:46:09;;;;;;;6.17;4.50;;;;;;;2.80;100.00;100735.91;5012908;28;20181;-67
2022/01/20 00:48:35;;;;;;;4.40;4.00;;;;;;;2.85;100.00;100736.69;5012871;28;20187;-67
2022/01/20 00:51:00;;;;;;;5.23;3.60;;;;;;;2.88;100.00;100740.03;5001951;28;20767;-67
2022/01/20 00:53:26;;;;;;;4.57;4.17;;;;;;;2.94;100.00;100731.50;5002532;28;20179;-67
2022/01/20 00:55:51;;;;;;;5.63;4.17;;;;;;;3.05;100.00;100755.09;5012775;28;20235;-67
2022/01/20 00:58:17;;;;;;;4.83;4.20;;;;;;;3.11;100.00;100754.16;5012678;28;20293;-67
2022/01/20 01:00:42;;;;;;;5.23;4.13;;;;;;;3.16;100.00;100751.56;5002053;28;20230;-67
2022/01/20 01:03:08;;;;;;;4.20;3.80;;;;;;;3.41;100.00;100759.66;5011325;28;20574;-67
2022/01/20 01:05:37;;;;;;;5.20;3.93;;;;;;;3.33;100.00;100761.50;5012362;28;20197;-67
2022/01/20 01:08:03;;;;;;;5.63;3.97;;;;;;;3.34;100.00;100758.94;5012478;28;20182;-67
2022/01/20 01:10:33;;;;;;;4.17;3.77;;;;;;;3.43;100.00;100744.41;5002194;28;20405;-67
2022/01/20 01:13:06;;;;;;;5.17;3.80;;;;;;;3.48;100.00;100743.47;5011181;28;20205;-67
2022/01/20 01:15:40;;;;;;;4.63;3.70;;;;;;;3.38;100.00;100758.00;5012545;28;20210;-67
2022/01/20 01:23:34;;;;;;;4.37;3.60;;;;;;;3.39;100.00;100763.97;5011276;28;20236;-67
2022/01/20 01:26:01;;;;;;;4.77;3.47;;;;;;;3.38;100.00;100755.47;5012108;28;20188;-67
2022/01/20 01:28:29;;;;;;;3.80;3.10;;;;;;;3.44;100.00;100769.00;5012224;28;20218;-67
2022/01/20 01:33:50;;;;;;;4.10;3.67;;;;;;;3.37;100.00;100778.38;5010958;28;20455;-68
2022/01/20 01:36:19;;;;;;;4.40;3.83;;;;;;;3.22;100.00;100776.91;5011644;28;20261;-68
2022/01/20 01:38:45;;;;;;;5.63;3.57;;;;;;;2.96;100.00;100778.06;5011104;28;20309;-68
2022/01/20 01:41:16;;;;;;;4.53;3.83;;;;;;;2.93;100.00;100772.16;4991610;28;20313;-68
2022/01/20 01:43:45;;;;;;;3.60;3.10;;;;;;;2.92;100.00;100776.44;5017335;28;20722;-68
2022/01/20 01:46:14;;;;;;;4.60;3.50;;;;;;;2.97;100.00;100777.19;5024750;28;20196;-68
2022/01/20 01:48:41;;;;;;;8.70;3.70;;;;;;;3.12;100.00;100785.50;5031360;28;20680;-68
2022/01/20 01:51:07;;;;;;;7.07;3.53;;;;;;;3.06;100.00;100778.78;5020486;28;20250;-67
2022/01/20 01:53:33;;;;;;;6.60;3.43;;;;;;;3.25;100.00;100770.94;5013236;28;20641;-69
2022/01/20 01:55:58;;;;;;;8.73;3.47;;;;;;;3.26;100.00;100767.53;5029010;28;20201;-68
2022/01/20 01:58:24;;;;;;;9.17;4.27;;;;;;;3.37;100.00;100775.84;5011243;28;20185;-68
2022/01/20 02:00:49;;;;;;;6.57;3.83;;;;;;;3.37;100.00;100784.34;4994821;28;20225;-68
2022/01/20 02:03:15;;;;;;;8.20;3.73;;;;;;;3.40;100.00;100788.53;5029854;28;20177;-68
2022/01/20 02:08:32;;;;;;;12.73;4.13;;;;;;;3.69;100.00;100779.63;5031309;28;20187;-68
2022/01/20 02:19:26;;;;;;;8.80;4.63;;;;;;;3.60;100.00;100787.38;4988998;28;20676;-68
2022/01/20 02:22:01;;;;;;;5.63;4.07;;;;;;;3.53;100.00;100779.03;4979048;28;20227;-68
2022/01/20 02:24:26;;;;;;;11.40;4.30;;;;;;;3.45;100.00;100773.19;4988675;28;20296;-68
2022/01/20 02:26:51;;;;;;;9.00;3.60;;;;;;;3.36;100.00;100781.78;4988859;28;20297;-68
2022/01/20 02:29:18;;;;;;;7.47;4.60;;;;;;;3.22;100.00;100781.97;4988913;28;20818;-68
2022/01/20 02:31:44;;;;;;;8.93;4.30;;;;;;;3.04;100.00;100790.69;4962535;28;20538;-68
2022/01/20 02:34:11;;;;;;;8.73;4.67;;;;;;;3.10;100.00;100779.59;4971390;28;20235;-68
2022/01/20 02:36:39;;;;;;;8.60;4.30;;;;;;;3.18;100.00;100782.88;4969371;28;20588;-68
2022/01/20 02:39:20;;;;;;;9.90;4.73;;;;;;;3.25;100.00;100779.41;4969134;28;20183;-68
2022/01/20 02:47:13;;;;;;;14.87;4.70;;;;;;;3.25;100.00;100760.75;4971777;28;20546;-68
2022/01/20 02:49:38;;;;;;;14.40;4.93;;;;;;;3.30;100.00;100758.97;4971578;28;20176;-68
2022/01/20 02:52:06;;;;;;;11.67;4.10;;;;;;;3.32;100.00;100768.28;4993067;28;20241;-68
2022/01/20 02:54:31;;;;;;;17.80;5.20;;;;;;;3.21;100.00;100768.44;4990399;28;20209;-68
2022/01/20 02:56:56;;;;;;;12.93;4.37;;;;;;;3.37;100.00;100773.31;4990432;28;20175;-68
2022/01/20 02:59:21;;;;;;;14.20;4.23;;;;;;;3.14;100.00;100777.00;4991102;28;20183;-68
2022/01/20 03:01:47;;;;;;;19.43;4.93;;;;;;;3.16;100.00;100777.84;4993967;28;20238;-68
2022/01/20 03:04:12;;;;;;;13.57;4.10;;;;;;;2.94;100.00;100784.03;4992612;28;20601;-68
2022/01/20 03:06:38;;;;;;;11.80;4.63;;;;;;;2.92;100.00;100788.31;4991003;28;20710;-68
2022/01/20 03:09:04;;;;;;;12.63;4.63;;;;;;;2.95;100.00;100789.09;4990983;28;20262;-68
2022/01/20 03:11:29;;;;;;;14.60;4.13;;;;;;;3.07;100.00;100786.38;4991725;28;20234;-68
2022/01/20 03:13:55;;;;;;;15.40;4.00;;;;;;;3.02;100.00;100779.69;4994708;28;20281;-67
2022/01/20 03:16:20;;;;;;;13.07;3.53;;;;;;;3.10;100.00;100777.06;4990841;28;20174;-67
2022/01/20 03:18:45;;;;;;;18.17;4.27;;;;;;;3.20;100.00;100784.56;4990776;28;20209;-67
2022/01/20 03:21:11;;;;;;;14.13;3.67;;;;;;;3.27;100.00;100798.00;4988988;28;20308;-68
2022/01/20 03:23:36;;;;;;;14.23;3.93;;;;;;;3.17;100.00;100801.53;5018183;28;20616;-67
2022/01/20 03:26:02;;;;;;;11.70;4.13;;;;;;;3.17;100.00;100791.38;5024929;28;20181;-68
2022/01/20 03:28:27;;;;;;;11.57;4.67;;;;;;;3.12;100.00;100803.31;5010257;28;20193;-67
2022/01/20 03:30:53;;;;;;;11.33;3.90;;;;;;;3.02;100.00;100810.19;4989177;28;20245;-68
2022/01/20 03:33:18;;;;;;;12.20;4.37;;;;;;;2.83;100.00;100805.31;5008455;28;20216;-68
2022/01/20 03:35:43;;;;;;;15.67;4.53;;;;;;;2.65;100.00;100797.91;5010322;28;20181;-68
2022/01/20 03:38:09;;;;;;;15.83;4.37;;;;;;;2.54;100.00;100803.09;5010031;28;20178;-68
2022/01/20 03:40:35;;;;;;;20.60;4.40;;;;;;;2.39;100.00;100802.41;4997461;28;20237;-68
2022/01/20 03:43:00;;;;;;;14.63;4.90;;;;;;;2.32;100.00;100803.31;5005401;28;20195;-68
2022/01/20 03:45:27;;;;;;;16.97;4.67;;;;;;;2.35;100.00;100802.44;5013900;28;20196;-67
2022/01/20 03:48:05;;;;;;;19.17;4.90;;;;;;;2.31;100.00;100803.28;5021697;28;20184;-67
2022/01/20 03:53:15;;;;;;;17.77;5.37;;;;;;;2.23;100.00;100798.28;5028871;28;20188;-68
2022/01/20 03:55:41;;;;;;;22.30;5.93;;;;;;;2.20;100.00;100805.94;5029682;28;20173;-68
2022/01/20 03:58:07;;;;;;;20.47;6.17;;;;;;;2.17;100.00;100793.28;5029889;28;20169;-68
2022/01/20 04:00:32;;;;;;;21.57;5.80;;;;;;;2.15;100.00;100807.69;4991693;28;20318;-68
2022/01/20 04:02:58;;;;;;;20.20;5.77;;;;;;;2.13;100.00;100797.53;5021283;28;20169;-67
2022/01/20 04:05:23;;;;;;;27.67;7.67;;;;;;;2.00;100.00;100790.88;5024847;28;20218;-68
2022/01/20 04:07:48;;;;;;;23.67;6.60;;;;;;;2.01;100.00;100795.94;5012360;28;20187;-68
2022/01/20 04:10:14;;;;;;;24.83;5.90;;;;;;;1.90;100.00;100788.41;5005096;28;20396;-67
2022/01/20 04:12:39;;;;;;;21.63;6.40;;;;;;;1.83;100.00;100783.41;5028854;28;20203;-68
2022/01/20 04:15:08;;;;;;;21.23;6.27;;;;;;;1.80;100.00;100788.47;5019369;28;20211;-68
2022/01/20 04:17:40;;;;;;;15.23;6.23;;;;;;;1.91;100.00;100790.09;5023419;28;20987;-68
2022/01/20 04:20:07;;;;;;;28.60;6.07;;;;;;;1.73;100.00;100795.31;4985055;28;20173;-67
2022/01/20 04:22:32;;;;;;;21.97;6.70;;;;;;;1.80;100.00;100793.56;5023705;28;20183;-66
2022/01/20 04:24:58;;;;;;;26.43;7.53;;;;;;;1.84;100.00;100791.00;4993359;28;20196;-67
2022/01/20 04:27:23;;;;;;;22.20;5.73;;;;;;;1.77;100.00;100785.13;4993800;28;20207;-66
2022/01/20 04:29:48;;;;;;;26.67;6.20;;;;;;;1.96;100.00;100769.78;4993445;28;20194;-66
2022/01/20 04:32:14;;;;;;;20.47;5.57;;;;;;;2.07;100.00;100780.66;4963135;28;20229;-67
2022/01/20 04:34:39;;;;;;;21.63;5.47;;;;;;;1.91;100.00;100776.56;5012869;28;20188;-67
2022/01/20 04:37:06;;;;;;;26.07;6.17;;;;;;;1.93;100.00;100764.72;4995299;28;20342;-67
2022/01/20 04:39:34;;;;;;;25.47;6.30;;;;;;;1.93;100.00;100782.47;5013166;28;20163;-67
2022/01/20 04:41:59;;;;;;;27.10;5.23;;;;;;;2.00;100.00;100766.34;4970320;28;20223;-67
2022/01/20 04:47:08;;;;;;;20.77;5.87;;;;;;;2.09;100.00;100757.81;4993451;28;20183;-67
2022/01/20 04:57:45;;;;;;;18.43;4.97;;;;;;;2.25;100.00;100761.06;4993425;28;20200;-67
2022/01/20 05:00:11;;;;;;;20.70;4.40;;;;;;;2.37;100.00;100770.22;4981951;28;20184;-67
2022/01/20 05:02:36;;;;;;;23.90;4.70;;;;;;;2.41;100.00;100764.28;4977104;28;20225;-67
2022/01/20 05:05:01;;;;;;;21.33;4.77;;;;;;;2.37;100.00;100748.25;4992884;28;20276;-67
2022/01/20 05:07:28;;;;;;;19.53;4.97;;;;;;;2.49;100.00;100761.66;4993096;28;20640;-67
2022/01/20 05:09:56;;;;;;;19.20;4.73;;;;;;;2.52;100.00;100759.09;4993098;28;20174;-67
2022/01/20 05:12:28;;;;;;;18.50;4.27;;;;;;;2.39;100.00;100766.00;4965228;28;20230;-67
2022/01/20 05:14:54;;;;;;;16.33;4.77;;;;;;;2.57;100.00;100763.25;4987316;28;20198;-67
2022/01/20 05:17:20;;;;;;;8.00;3.17;;;;;;;2.71;100.00;100762.28;4976873;28;20173;-67
2022/01/20 05:19:45;;;;;;;14.27;3.63;;;;;;;2.67;100.00;100760.63;4992043;28;20176;-67
2022/01/20 05:22:10;;;;;;;19.97;4.17;;;;;;;2.47;100.00;100759.16;4991774;28;20359;-67
2022/01/20 05:24:35;;;;;;;16.70;3.53;;;;;;;2.35;100.00;100761.81;5009813;28;20196;-67
2022/01/20 05:27:01;;;;;;;19.30;3.97;;;;;;;2.43;100.00;100775.25;5011913;28;20234;-67
2022/01/20 05:29:26;;;;;;;15.00;4.40;;;;;;;2.30;100.00;100769.47;5012060;28;20195;-67
2022/01/20 05:31:52;;;;;;;15.57;3.13;;;;;;;2.33;100.00;100782.13;4992204;28;20224;-67
2022/01/20 05:34:18;;;;;;;12.93;3.13;;;;;;;2.34;100.00;100785.50;4990542;28;20194;-67
2022/01/20 05:36:47;;;;;;;16.77;3.77;;;;;;;2.49;100.00;100782.81;4992314;28;20178;-67
2022/01/20 05:39:12;;;;;;;19.87;3.73;;;;;;;2.70;100.00;100779.19;4992194;28;20166;-67
2022/01/20 05:41:37;;;;;;;10.43;3.40;;;;;;;2.86;100.00;100779.03;4968525;28;20233;-67
2022/01/20 05:44:03;;;;;;;18.93;5.00;;;;;;;2.71;100.00;100787.69;4988389;28;20193;-67
2022/01/20 05:46:39;;;;;;;16.80;3.90;;;;;;;2.58;100.00;100800.50;4992286;28;20192;-67
2022/01/20 05:49:09;;;;;;;15.07;3.83;;;;;;;2.37;100.00;100791.41;4992077;28;20269;-67
2022/01/20 05:51:40;;;;;;;14.30;3.87;;;;;;;2.35;100.00;100766.88;4968692;28;20239;-67
2022/01/20 05:54:07;;;;;;;17.30;4.13;;;;;;;2.44;100.00;100766.78;4988650;28;20188;-67
2022/01/20 05:56:33;;;;;;;15.90;4.67;;;;;;;2.32;100.00;100767.75;4992420;28;20209;-67
2022/01/20 05:58:59;;;;;;;15.83;4.40;;;;;;;2.28;100.00;100773.69;4991870;28;20174;-68
2022/01/20 06:01:25;;;;;;;21.50;4.07;;;;;;;2.11;100.00;100778.94;4970024;28;20807;-67
2022/01/20 06:03:50;;;;;;;15.23;3.80;;;;;;;2.02;100.00;100774.81;4985617;28;20196;-67
2022/01/20 06:06:16;;;;;;;15.03;3.83;;;;;;;2.07;100.00;100774.75;4991643;28;20252;-67
2022/01/20 06:08:42;;;;;;;11.90;3.60;;;;;;;2.03;100.00;100766.31;4991928;28;20184;-67
2022/01/20 06:11:08;;;;;;;13.00;3.20;;;;;;;2.06;100.00;100776.44;4972052;28;20250;-67
2022/01/20 06:13:33;;;;;;;15.10;4.20;;;;;;;2.02;100.00;100772.25;4966879;28;20213;-67
2022/01/20 06:15:59;;;;;;;14.30;3.93;;;;;;;2.06;100.00;100781.53;4991577;28;20172;-67
2022/01/20 06:18:24;;;;;;;16.63;4.03;;;;;;;2.08;100.00;100784.03;4990751;28;20586;-67
2022/01/20 06:20:50;;;;;;;12.07;3.27;;;;;;;2.17;100.00;100768.75;4993068;28;20384;-67
2022/01/20 06:23:16;;;;;;;14.70;4.33;;;;;;;2.17;100.00;100761.13;5002031;28;20188;-67
2022/01/20 06:25:42;;;;;;;14.37;3.17;;;;;;;2.14;100.00;100756.06;5011135;28;20541;-67
2022/01/20 06:28:08;;;;;;;12.53;3.40;;;;;;;2.08;100.00;100758.66;5011104;28;20191;-67
2022/01/20 06:30:34;;;;;;;16.10;4.03;;;;;;;2.14;100.00;100761.13;5000691;28;20355;-67
2022/01/20 06:33:01;;;;;;;13.67;3.47;;;;;;;2.07;100.00;100755.28;4992240;28;20284;-67
2022/01/20 06:35:27;;;;;;;9.83;2.80;;;;;;;2.13;100.00;100758.63;4973967;28;20198;-68
2022/01/20 06:37:52;;;;;;;12.20;2.90;;;;;;;2.15;100.00;100772.16;4991022;28;20202;-67
2022/01/20 06:40:18;;;;;;;10.70;3.00;;;;;;;2.12;100.00;100767.09;4981219;28;20264;-66
2022/01/20 06:42:43;;;;;;;12.03;3.17;;;;;;;2.13;100.00;100773.84;4971507;28;20565;-67
2022/01/20 06:45:12;;;;;;;14.73;3.00;;;;;;;2.20;100.00;100773.78;4990585;28;20299;-67
2022/01/20 06:47:38;;;;;;;11.43;2.83;;;;;;;2.30;100.00;100778.78;4987668;28;20183;-67
2022/01/20 06:50:06;;;;;;;10.83;3.10;;;;;;;2.38;100.00;100789.69;4982103;28;20176;-66
2022/01/20 06:52:31;;;;;;;8.93;2.47;;;;;;;2.31;100.00;100793.13;4989858;28;20328;-66
2022/01/20 06:54:58;;;;;;;13.83;3.90;;;;;;;2.46;100.00;100804.88;4989219;28;20824;-66
2022/01/20 06:57:23;;;;;;;12.90;3.07;;;;;;;2.44;100.00;100794.72;4991948;28;20178;-66
2022/01/20 06:59:49;;;;;;;11.30;3.50;;;;;;;2.42;100.00;100798.97;4992926;28;20224;-66
2022/01/20 07:02:15;;;;;;;7.73;2.53;;;;;;;2.59;100.00;100814.03;4981018;28;20267;-66
2022/01/20 07:04:40;;;;;;;12.37;3.00;;;;;;;2.42;100.00;100820.13;4991294;28;20702;-67
2022/01/20 07:07:06;;;;;;;12.17;2.87;;;;;;;2.38;100.00;100832.84;4992075;28;20178;-67
2022/01/20 07:09:32;;;;;;;9.20;3.20;;;;;;;2.25;100.00;100839.75;4993011;28;20193;-67
2022/01/20 07:11:59;;;;;;;12.33;2.70;;;;;;;2.21;100.00;100833.03;4980454;28;20229;-66
2022/01/20 07:14:24;;;;;;;11.80;3.00;;;;;;;2.27;100.00;100848.22;4993278;28;20337;-67
2022/01/20 07:16:49;;;;;;;9.73;2.57;;;;;;;2.22;100.00;100837.22;4992539;28;20301;-66
2022/01/20 07:19:15;;;;;;;7.43;1.87;;;;;;;2.14;100.00;100837.28;4994939;28;20191;-66
2022/01/20 07:21:41;;;;;;;11.37;2.30;;;;;;;2.07;100.00;100828.88;5005709;28;20706;-66
2022/01/20 07:24:07;;;;;;;8.37;2.50;;;;;;;2.06;100.00;100831.41;5013445;28;20221;-66
2022/01/20 07:26:33;;;;;;;5.73;1.70;;;;;;;2.16;100.00;100837.28;5011858;28;20229;-67
2022/01/20 07:28:58;;;;;;;8.47;2.77;;;;;;;2.09;100.00;100849.19;5016652;28;20233;-68
2022/01/20 07:31:24;;;;;;;10.40;2.80;;;;;;;2.08;100.00;100843.28;5012391;28;20225;-67
2022/01/20 07:33:51;;;;;;;10.97;4.03;;;;;;;2.01;100.00;100844.16;5012725;28;20203;-67
2022/01/20 07:36:17;;;;;;;11.53;5.57;;;;;;;1.92;100.00;100840.00;5014973;28;20624;-66
2022/01/20 07:38:42;;;;;;;15.47;4.47;;;;;;;1.94;100.00;100835.72;5018730;28;20181;-67
2022/01/20 07:41:07;;;;;;;8.23;3.00;;;;;;;2.02;100.00;100850.06;5011764;28;20225;-67
2022/01/20 07:43:33;;;;;;;11.87;3.33;;;;;;;2.07;100.00;100853.41;5021799;28;20189;-67
2022/01/20 07:45:58;;;;;;;9.50;2.60;;;;;;;2.21;100.00;100851.63;5024950;28;20240;-68
2022/01/20 07:48:24;;;;;;;11.13;3.30;;;;;;;2.29;100.00;100853.25;5027046;28;20189;-67
2022/01/20 07:50:49;;;;;;;9.67;2.93;;;;;;;2.37;100.00;100861.63;5027977;28;20227;-67
2022/01/20 07:53:14;;;;;;;11.73;2.70;;;;;;;2.33;100.00;100857.44;5035516;28;20278;-70
2022/01/20 07:55:40;;;;;;;7.80;2.10;;;;;;;2.29;100.00;100858.34;5029067;28;20202;-68
2022/01/20 07:58:05;;;;;;;9.20;2.63;;;;;;;2.30;100.00;100878.63;5028538;28;20652;-68
2022/01/20 08:00:31;;;;;;;6.37;2.20;;;;;;;2.49;100.00;100879.31;5001624;28;20244;-69
2022/01/20 08:02:56;;;;;;;8.67;2.37;;;;;;;2.61;100.00;100888.53;4999651;28;20204;-69
2022/01/20 08:05:22;;;;;;;7.10;2.43;;;;;;;2.69;100.00;100884.25;5022438;28;20680;-68
2022/01/20 08:07:48;;;;;;;8.60;2.23;;;;;;;2.72;100.00;100888.44;5048796;28;20190;-68
2022/01/20 08:10:14;;;;;;;5.77;2.23;;;;;;;2.82;100.00;100895.13;5011819;28;20178;-68
2022/01/20 08:12:39;;;;;;;9.10;2.33;;;;;;;2.86;100.00;100895.94;5013080;28;20200;-68
2022/01/20 08:15:09;;;;;;;9.00;2.40;;;;;;;2.85;100.00;100905.25;5004203;28;20326;-68
2022/01/20 08:17:35;;;;;;;4.80;2.40;;;;;;;2.90;100.00;100907.75;5013081;28;20261;-68
2022/01/20 08:20:00;;;;;;;5.53;2.10;;;;;;;3.05;100.00;100915.22;5017076;28;20186;-67
2022/01/20 08:22:27;;;;;;;7.73;2.40;;;;;;;2.96;100.00;100927.19;5027153;28;20577;-68
2022/01/20 08:24:52;;;;;;;8.10;2.10;;;;;;;2.78;100.00;100915.47;5025268;28;20278;-69
2022/01/20 08:27:21;;;;;;;5.60;2.07;;;;;;;2.97;100.00;100919.53;5033783;28;20546;-68
2022/01/20 08:29:46;;;;;;;7.13;2.30;;;;;;;3.17;100.00;100918.50;5033841;28;20588;-68
2022/01/20 08:32:12;;;;;;;6.47;2.10;;;;;;;3.06;100.00;100928.75;4972550;28;20220;-68
2022/01/20 08:34:37;;;;;;;7.60;2.80;;;;;;;3.06;100.00;100928.75;4993596;28;20198;-68
2022/01/20 08:37:03;;;;;;;9.37;2.13;;;;;;;3.10;100.00;100925.34;4993533;28;20269;-67
2022/01/20 08:42:01;;;;;;;9.20;2.13;;;;;;;3.23;100.00;100924.34;4997979;28;20232;-69
2022/01/20 08:44:27;;;;;;;4.87;2.00;;;;;;;3.21;100.00;100935.41;5011935;28;20272;-68
2022/01/20 08:46:53;;;;;;;5.00;1.90;;;;;;;3.41;100.00;100931.78;5012822;28;20195;-69
2022/01/20 08:49:22;;;;;;;4.77;2.13;;;;;;;3.10;100.00;100943.16;5013137;28;20166;-68
2022/01/20 08:51:48;;;;;;;7.87;1.73;;;;;;;3.34;100.00;100952.22;5001747;28;20243;-69
2022/01/20 08:54:13;;;;;;;5.87;1.80;;;;;;;3.12;100.00;100955.84;5011145;28;20771;-67
2022/01/20 08:56:40;;;;;;;7.23;2.33;;;;;;;3.07;100.00;100963.50;5012881;28;20174;-70
2022/01/20 08:59:07;;;;;;;5.53;1.80;;;;;;;3.03;100.00;100965.22;4995258;28;20173;-69
2022/01/20 09:01:33;;;;;;;4.30;1.57;;;;;;;3.04;100.00;100977.09;5001746;28;20317;-70
2022/01/20 09:03:58;;;;;;;5.63;2.10;;;;;;;3.15;100.00;100971.91;5012457;28;20256;-69
2022/01/20 09:06:24;;;;;;;4.37;2.00;;;;;;;3.13;100.00;100980.41;5012924;28;20169;-70
2022/01/20 09:08:49;;;;;;;7.90;2.63;;;;;;;3.30;100.00;100982.75;5012883;28;20635;-70
2022/01/20 09:11:30;;;;;;;4.53;2.03;;;;;;;3.33;100.00;100985.28;5002302;28;20268;-68
2022/01/20 09:16:43;;;;;;;4.50;1.77;;;;;;;3.60;100.00;100996.88;5013010;28;20228;-67
2022/01/20 09:19:09;;;;;;;4.07;1.80;;;;;;;3.52;98.04;100999.50;5012769;28;20197;-68
2022/01/20 09:21:34;;;;;;;8.23;1.93;;;;;;;3.51;94.51;101002.03;5001413;28;20757;-71
2022/01/20 09:24:00;;;;;;;6.33;2.37;;;;;;;3.44;94.73;100996.19;5013433;28;20195;-67
2022/01/20 09:26:25;;;;;;;7.40;2.30;;;;;;;3.72;96.01;100986.56;5020578;28;20229;-68
2022/01/20 09:28:51;;;;;;;2.87;1.53;;;;;;;3.91;95.93;100993.97;5024054;28;20672;-68
2022/01/20 09:31:22;;;;;;;7.57;2.20;;;;;;;3.98;93.78;100992.16;5003344;28;20226;-67
2022/01/20 09:33:47;;;;;;;6.57;2.10;;;;;;;3.78;93.29;100990.72;4992006;28;20668;-68
2022/01/20 09:36:13;;;;;;;6.90;2.00;;;;;;;3.98;92.69;100997.25;4992728;28;20175;-69
2022/01/20 09:38:39;;;;;;;7.37;2.50;;;;;;;3.64;88.89;100995.97;4992581;28;20278;-68
2022/01/20 09:41:05;;;;;;;9.63;2.53;;;;;;;3.70;88.76;100997.63;4991369;28;20235;-68
2022/01/20 09:43:31;;;;;;;6.00;2.63;;;;;;;4.79;85.67;100991.88;5010965;28;20225;-70
2022/01/20 09:45:58;;;;;;;9.63;2.53;;;;;;;6.07;77.59;100994.59;5012156;28;20655;-70
2022/01/20 09:48:25;;;;;;;11.03;2.83;;;;;;;7.40;71.10;101004.19;5011524;28;20184;-70
2022/01/20 09:50:51;;;;;;;11.07;2.67;;;;;;;7.94;66.50;101008.72;5001185;28;20659;-71
2022/01/20 09:53:17;;;;;;;9.60;2.60;;;;;;;7.76;64.70;101010.91;5010504;28;20580;-68
2022/01/20 09:55:43;;;;;;;7.87;2.20;;;;;;;7.70;65.78;101017.06;5011722;28;20171;-70
2022/01/20 09:58:10;;;;;;;7.17;2.43;;;;;;;8.28;61.70;101023.09;5019328;28;20182;-69
2022/01/20 10:00:36;;;;;;;9.10;2.30;;;;;;;8.70;60.32;101027.81;5012773;28;20308;-70
2022/01/20 10:03:09;;;;;;;6.13;2.10;;;;;;;8.42;61.47;101030.38;5030428;28;20259;-71
2022/01/20 10:05:39;;;;;;;8.70;2.40;;;;;;;8.79;59.52;101036.94;5031139;28;20198;-72
2022/01/20 10:08:17;;;;;;;10.20;2.73;;;;;;;9.32;57.61;101044.59;5031805;28;20166;-71
2022/01/20 10:10:50;;;;;;;7.67;2.33;;;;;;;8.46;57.52;101049.91;5017210;28;20225;-72
2022/01/20 10:13:30;;;;;;;6.13;2.43;;;;;;;9.22;55.23;101050.13;5030812;28;20541;-68
2022/01/20 10:16:01;;;;;;;7.10;2.03;;;;;;;9.10;53.80;101039.34;5027607;28;20324;-69
2022/01/20 10:18:28;;;;;;;7.37;2.43;;;;;;;8.52;55.89;101047.19;5019212;28;20662;-74
2022/01/20 10:20:59;;;;;;;8.37;2.80;;;;;;;6.66;59.87;101052.09;5008172;28;20823;-69
2022/01/20 10:23:47;;;;;;;6.63;2.43;;;;;;;5.49;64.38;101063.81;5019072;28;20499;-65
2022/01/20 10:26:15;;;;;;;10.50;2.33;;;;;;;5.22;66.90;101059.16;5011438;28;20266;-67
2022/01/20 10:28:44;;;;;;;8.57;2.73;;;;;;;5.32;68.22;101056.44;5011089;28;20273;-67
2022/01/20 10:31:11;;;;;;;9.20;2.47;;;;;;;5.35;67.83;101042.78;5003928;28;20237;-67
2022/01/20 10:33:40;;;;;;;9.33;2.27;;;;;;;5.22;67.68;101060.03;5010750;28;20206;-67
2022/01/20 10:36:15;;;;;;;6.33;2.40;;;;;;;5.02;68.41;101055.22;5016399;28;20172;-68
2022/01/20 10:38:58;;;;;;;9.90;2.63;;;;;;;5.04;70.27;101061.16;4981738;28;20176;-68
2022/01/20 10:41:38;;;;;;;8.57;2.80;;;;;;;4.94;70.75;101054.53;5000597;28;20273;-69
2022/01/20 10:44:10;;;;;;;5.37;2.13;;;;;;;4.89;73.46;101049.50;5008672;28;20220;-67
2022/01/20 10:46:47;;;;;;;9.47;2.30;;;;;;;4.97;71.67;101060.41;4999820;28;20262;-69
2022/01/20 10:49:14;;;;;;;8.67;3.10;;;;;;;5.07;69.60;101063.63;5019065;28;20168;-68
2022/01/20 10:51:39;;;;;;;8.17;2.70;;;;;;;4.95;70.38;101068.94;4982458;28;20707;-69
2022/01/20 10:54:10;;;;;;;8.23;3.00;;;;;;;4.84;73.12;101067.41;4991326;28;20204;-69
2022/01/20 10:57:00;;;;;;;7.70;2.87;;;;;;;4.74;74.66;101065.88;5005423;28;20258;-69
2022/01/20 10:59:25;;;;;;;9.97;2.47;;;;;;;4.57;72.65;101062.72;4991581;28;20580;-67
2022/01/20 11:01:58;;;;;;;7.57;2.57;;;;;;;4.13;72.74;101067.53;4975987;28;20228;-69
2022/01/20 11:04:24;;;;;;;6.93;2.40;;;;;;;3.86;76.49;101060.19;4989114;28;20199;-67
2022/01/20 11:06:54;;;;;;;8.27;2.83;;;;;;;3.81;78.45;101072.13;4970850;28;20665;-67
2022/01/20 11:09:21;;;;;;;7.77;3.00;;;;;;;3.66;81.06;101064.66;4973174;28;20171;-67
2022/01/20 11:11:48;;;;;;;9.67;2.63;;;;;;;3.61;82.38;101054.53;4981746;28;20234;-68
2022/01/20 11:14:14;;;;;;;10.27;3.00;;;;;;;3.35;83.52;101055.63;4992586;28;20215;-67
2022/01/20 11:16:40;;;;;;;8.43;3.20;;;;;;;3.51;85.79;101055.47;4983758;28;20618;-70
2022/01/20 11:19:20;;;;;;;14.20;6.03;;;;;;;3.71;86.40;101055.28;4972820;28;20552;-67
2022/01/20 11:21:46;;;;;;;7.30;3.23;;;;;;;3.99;85.97;101045.59;4960769;28;20262;-70
2022/01/20 11:24:23;;;;;;;7.53;2.93;;;;;;;3.79;83.35;101028.03;4986641;28;20289;-67
2022/01/20 11:26:57;;;;;;;11.30;3.10;;;;;;;3.82;80.29;101039.88;4980574;28;20241;-71
2022/01/20 11:29:27;;;;;;;8.50;3.00;;;;;;;4.08;81.33;101048.91;4988892;28;20182;-67
2022/01/20 11:31:54;;;;;;;8.23;2.53;;;;;;;3.83;79.77;101044.09;4974599;28;20261;-66
2022/01/20 11:34:20;;;;;;;7.10;2.90;;;;;;;3.75;78.60;101049.28;4989938;28;20241;-67
2022/01/20 11:36:48;;;;;;;6.50;2.83;;;;;;;3.81;77.71;101059.41;4984331;28;20179;-69
2022/01/20 11:39:14;;;;;;;5.90;2.30;;;;;;;3.81;78.21;101056.88;4987519;28;20259;-67
2022/01/20 11:41:49;;;;;;;8.73;2.97;;;;;;;3.94;78.44;101066.91;4965957;28;20300;-67
2022/01/20 11:44:17;;;;;;;17.47;3.03;;;;;;;3.84;78.31;101058.53;4982611;28;20575;-68
2022/01/20 11:46:47;;;;;;;7.90;2.77;;;;;;;4.02;79.14;101070.22;4986534;28;20197;-68
2022/01/20 11:49:15;;;;;;;6.80;2.83;;;;;;;3.59;79.96;101068.97;4986671;28;20191;-68
2022/01/20 11:51:52;;;;;;;7.30;2.93;;;;;;;3.34;80.67;101074.28;4982039;28;20237;-67
2022/01/20 11:54:41;;;;;;;6.77;2.50;;;;;;;3.36;81.47;101074.25;4990616;28;20709;-71
2022/01/20 11:57:20;;;;;;;8.70;3.80;;;;;;;3.32;83.18;101078.53;4972765;28;20207;-68
2022/01/20 11:59:46;;;;;;;10.13;3.40;;;;;;;3.47;85.08;101069.09;4983396;28;20187;-68
2022/01/20 12:02:28;;;;;;;7.73;3.73;;;;;;;3.38;84.47;101065.75;4969781;28;20219;-67
2022/01/20 12:04:54;;;;;;;7.23;2.97;;;;;;;3.57;84.95;101059.66;5009734;28;20205;-67
2022/01/20 12:07:34;;;;;;;5.63;2.73;;;;;;;3.72;84.64;101062.03;5011261;28;20178;-69
2022/01/20 12:10:11;;;;;;;9.80;3.03;;;;;;;3.78;83.34;101054.34;5019992;28;20265;-70
2022/01/20 12:12:39;;;;;;;10.93;2.83;;;;;;;3.84;82.29;101054.25;5005752;28;20214;-67
2022/01/20 12:15:20;;;;;;;10.73;4.00;;;;;;;3.95;83.05;101053.31;5008134;28;20253;-67
2022/01/20 12:17:55;;;;;;;8.50;3.23;;;;;;;4.18;81.60;101060.66;4994951;28;20261;-70
2022/01/20 12:20:23;;;;;;;6.53;2.97;;;;;;;4.46;79.42;101067.97;4992369;28;20184;-67
2022/01/20 12:22:49;;;;;;;7.60;2.73;;;;;;;4.38;77.59;101065.53;5024092;28;20571;-70
2022/01/20 12:25:26;;;;;;;8.50;3.70;;;;;;;4.33;78.13;101063.03;5009456;28;20278;-68
2022/01/20 12:28:00;;;;;;;7.33;2.40;;;;;;;4.32;78.31;101068.97;5011857;28;20260;-67
2022/01/20 12:30:26;;;;;;;6.23;2.53;;;;;;;3.97;78.53;101075.34;4984046;28;20229;-67
2022/01/20 12:33:00;;;;;;;5.73;2.40;;;;;;;3.92;78.38;101076.25;5011951;28;20835;-68